createdAt,value
2023-05-10T00:01:09.977Z,13.56
2023-05-10T00:03:36.795Z,13.54
2023-05-10T00:06:04.877Z,13.55
2023-05-10T00:08:32.190Z,13.57
2023-05-10T00:10:59.475Z,13.59
2023-05-10T00:13:26.510Z,13.56
2023-05-10T00:15:54.213Z,13.59
2023-05-10T00:18:21.632Z,13.59
2023-05-10T00:20:49.777Z,13.51
2023-05-10T00:23:16.515Z,13.41
2023-05-10T00:25:44.234Z,13.42
2023-05-10T00:28:11.130Z,13.46
2023-05-10T00:30:38.180Z,13.47
2023-05-10T00:33:05.416Z,13.47
2023-05-10T00:35:32.536Z,13.49
2023-05-10T00:37:59.545Z,13.44
2023-05-10T00:40:27.225Z,13.35
2023-05-10T00:42:54.488Z,13.35
2023-05-10T00:45:21.586Z,13.35
2023-05-10T00:47:48.965Z,13.35
2023-05-10T00:50:16.814Z,13.33
2023-05-10T00:52:44.281Z,13.31
2023-05-10T00:55:13.016Z,13.30
2023-05-10T00:57:40.817Z,13.32
2023-05-10T01:00:08.853Z,13.29
2023-05-10T01:02:36.430Z,13.33
2023-05-10T01:05:07.495Z,13.31
2023-05-10T01:07:35.153Z,13.27
2023-05-10T01:10:02.587Z,13.30
2023-05-10T01:12:38.176Z,13.27
2023-05-10T01:15:07.977Z,13.31
2023-05-10T01:17:36.802Z,13.34
2023-05-10T01:20:05.365Z,13.32
2023-05-10T01:23:02.125Z,13.31
2023-05-10T01:25:58.178Z,13.24
2023-05-10T01:28:35.797Z,13.25
2023-05-10T01:31:27.594Z,13.21
2023-05-10T01:34:10.464Z,13.17
2023-05-10T01:36:49.231Z,13.16
2023-05-10T01:39:51.721Z,13.10
2023-05-10T01:42:22.711Z,13.07
2023-05-10T01:45:03.397Z,13.04
2023-05-10T01:47:50.772Z,13.11
2023-05-10T01:50:25.603Z,13.07
2023-05-10T01:52:55.652Z,13.06
2023-05-10T01:55:27.031Z,13.09
2023-05-10T01:58:02.731Z,13.09
2023-05-10T02:00:32.443Z,13.07
2023-05-10T02:03:02.742Z,13.11
2023-05-10T02:05:31.223Z,13.07
2023-05-10T02:07:59.937Z,13.10
2023-05-10T02:10:28.300Z,13.11
2023-05-10T02:12:56.607Z,13.14
2023-05-10T02:15:25.814Z,13.16
2023-05-10T02:17:55.918Z,13.17
2023-05-10T02:20:24.267Z,13.16
2023-05-10T02:22:55.104Z,13.16
2023-05-10T02:25:24.268Z,13.17
2023-05-10T02:27:55.232Z,13.14
2023-05-10T02:30:23.896Z,13.13
2023-05-10T02:32:52.907Z,13.11
2023-05-10T02:35:20.540Z,13.09
2023-05-10T02:37:49.315Z,13.10
2023-05-10T02:40:19.208Z,13.08
2023-05-10T02:42:49.811Z,13.06
2023-05-10T02:45:21.685Z,13.04
2023-05-10T02:47:49.563Z,13.05
2023-05-10T02:50:17.507Z,13.00
2023-05-10T02:52:48.693Z,12.98
2023-05-10T02:55:17.792Z,13.00
2023-05-10T02:57:52.152Z,13.02
2023-05-10T03:00:19.618Z,13.03
2023-05-10T03:02:46.727Z,13.07
2023-05-10T03:05:13.937Z,13.10
2023-05-10T03:07:40.949Z,13.14
2023-05-10T03:10:08.569Z,13.12
2023-05-10T03:13:00.473Z,13.13
2023-05-10T03:15:53.575Z,13.12
2023-05-10T03:18:24.461Z,13.15
2023-05-10T03:21:04.045Z,13.16
2023-05-10T03:23:44.055Z,13.14
2023-05-10T03:26:11.073Z,13.13
2023-05-10T03:28:40.484Z,13.13
2023-05-10T03:31:08.149Z,13.13
2023-05-10T03:33:35.521Z,13.12
2023-05-10T03:36:03.450Z,13.14
2023-05-10T03:38:30.675Z,13.12
2023-05-10T03:40:57.814Z,13.12
2023-05-10T03:43:24.726Z,13.09
2023-05-10T03:45:51.764Z,13.07
2023-05-10T03:48:18.467Z,13.10
2023-05-10T03:50:45.481Z,13.07
2023-05-10T03:53:13.353Z,13.12
2023-05-10T03:55:40.382Z,13.14
2023-05-10T03:58:07.340Z,13.16
2023-05-10T04:00:34.704Z,13.13
2023-05-10T04:03:01.827Z,13.15
2023-05-10T04:05:29.017Z,13.15
2023-05-10T04:07:56.028Z,13.16
2023-05-10T04:10:23.277Z,13.14
2023-05-10T04:12:50.201Z,13.11
2023-05-10T04:15:16.967Z,13.13
2023-05-10T04:17:44.017Z,13.14
2023-05-10T04:20:11.920Z,13.12
2023-05-10T04:22:39.354Z,13.15
2023-05-10T04:25:07.948Z,13.18
2023-05-10T04:27:34.803Z,13.20
2023-05-10T04:30:02.213Z,13.17
2023-05-10T04:32:29.289Z,13.18
2023-05-10T04:34:56.236Z,13.20
2023-05-10T04:37:23.971Z,13.21
2023-05-10T04:39:51.329Z,13.23
2023-05-10T04:42:18.174Z,13.18
2023-05-10T04:44:45.135Z,13.22
2023-05-10T04:47:14.052Z,13.26
2023-05-10T04:49:41.426Z,13.27
2023-05-10T04:52:08.102Z,13.27
2023-05-10T04:54:35.764Z,13.31
2023-05-10T04:57:03.397Z,13.33
2023-05-10T04:59:30.496Z,13.37
2023-05-10T05:01:57.384Z,13.35
2023-05-10T05:04:25.157Z,13.38
2023-05-10T05:06:53.886Z,13.41
2023-05-10T05:09:23.494Z,13.45
2023-05-10T05:11:50.275Z,13.48
2023-05-10T05:14:17.730Z,13.51
2023-05-10T05:16:44.880Z,13.45
2023-05-10T05:19:12.189Z,13.43
2023-05-10T05:21:39.273Z,13.41
2023-05-10T05:24:06.776Z,13.47
2023-05-10T05:26:33.550Z,13.47
2023-05-10T05:29:00.252Z,13.49
2023-05-10T05:31:27.333Z,13.54
2023-05-10T05:33:54.332Z,13.58
2023-05-10T05:36:21.466Z,13.58
2023-05-10T05:38:48.741Z,13.60
2023-05-10T05:41:16.235Z,13.60
2023-05-10T05:43:43.729Z,13.60
2023-05-10T05:46:10.518Z,13.63
2023-05-10T05:48:37.225Z,13.62
2023-05-10T05:51:07.083Z,13.63
2023-05-10T05:53:34.133Z,13.57
2023-05-10T05:56:01.515Z,13.56
2023-05-10T05:58:29.053Z,13.54
2023-05-10T06:00:56.465Z,13.55
2023-05-10T06:03:23.796Z,13.55
2023-05-10T06:05:50.647Z,13.58
2023-05-10T06:08:17.780Z,13.64
2023-05-10T06:10:45.507Z,13.61
2023-05-10T06:13:12.901Z,13.64
2023-05-10T06:15:39.890Z,13.64
2023-05-10T06:18:07.284Z,13.68
2023-05-10T06:20:34.310Z,13.76
2023-05-10T06:23:01.510Z,13.81
2023-05-10T06:25:28.566Z,13.74
2023-05-10T06:27:58.645Z,13.61
2023-05-10T06:30:29.840Z,13.62
2023-05-10T06:32:57.858Z,13.65
2023-05-10T06:35:25.313Z,13.65
2023-05-10T06:37:52.466Z,13.61
2023-05-10T06:40:20.260Z,13.66
2023-05-10T06:42:48.678Z,13.73
2023-05-10T06:45:16.892Z,13.83
2023-05-10T06:47:44.740Z,13.86
2023-05-10T06:50:15.087Z,13.80
2023-05-10T06:52:42.493Z,13.89
2023-05-10T06:55:09.980Z,13.88
2023-05-10T06:57:37.044Z,13.97
2023-05-10T07:00:09.356Z,14.02
2023-05-10T07:02:37.025Z,14.04
2023-05-10T07:05:05.527Z,14.07
2023-05-10T07:07:32.650Z,14.10
2023-05-10T07:09:59.563Z,14.12
2023-05-10T07:12:27.222Z,14.12
2023-05-10T07:14:54.105Z,14.13
2023-05-10T07:17:21.374Z,14.08
2023-05-10T07:19:48.535Z,14.06
2023-05-10T07:22:17.686Z,13.96
2023-05-10T07:24:45.477Z,13.91
2023-05-10T07:27:14.196Z,13.91
2023-05-10T07:29:41.577Z,13.91
2023-05-10T07:32:09.018Z,13.92
2023-05-10T07:34:36.382Z,14.00
2023-05-10T07:37:03.998Z,14.15
2023-05-10T07:39:30.787Z,14.27
2023-05-10T07:41:58.014Z,14.22
2023-05-10T07:44:25.043Z,14.31
2023-05-10T07:46:52.336Z,14.34
2023-05-10T07:49:19.277Z,14.26
2023-05-10T07:51:46.693Z,14.32
2023-05-10T07:54:15.231Z,14.46
2023-05-10T07:56:46.741Z,14.55
2023-05-10T07:59:18.055Z,14.58
2023-05-10T08:01:45.449Z,14.58
2023-05-10T08:04:13.438Z,14.63
2023-05-10T08:06:40.805Z,14.64
2023-05-10T08:09:07.661Z,14.72
2023-05-10T08:11:35.115Z,14.79
2023-05-10T08:14:02.790Z,14.88
2023-05-10T08:16:29.934Z,14.96
2023-05-10T08:18:56.977Z,15.11
2023-05-10T08:21:23.851Z,15.22
2023-05-10T08:23:50.810Z,15.31
2023-05-10T08:26:17.873Z,15.38
2023-05-10T08:28:44.859Z,15.26
2023-05-10T08:31:11.630Z,15.27
2023-05-10T08:33:38.874Z,15.27
2023-05-10T08:36:06.539Z,15.36
2023-05-10T08:38:33.369Z,15.30
2023-05-10T08:41:01.786Z,15.37
2023-05-10T08:43:32.905Z,15.57
2023-05-10T08:46:05.051Z,15.65
2023-05-10T08:48:35.383Z,15.70
2023-05-10T08:51:04.601Z,15.77
2023-05-10T08:53:35.682Z,15.87
2023-05-10T08:56:03.365Z,15.91
2023-05-10T08:58:30.584Z,15.98
2023-05-10T09:00:58.872Z,15.97
2023-05-10T09:03:27.467Z,15.71
2023-05-10T09:05:54.711Z,15.55
2023-05-10T09:08:21.823Z,15.46
2023-05-10T09:10:49.556Z,15.44
2023-05-10T09:13:18.332Z,15.45
2023-05-10T09:15:46.526Z,15.54
2023-05-10T09:18:13.773Z,15.38
2023-05-10T09:20:41.631Z,15.45
2023-05-10T09:23:08.751Z,15.48
2023-05-10T09:25:36.809Z,15.46
2023-05-10T09:28:07.611Z,15.41
2023-05-10T09:30:35.713Z,15.50
2023-05-10T09:33:03.578Z,15.59
2023-05-10T09:35:33.462Z,15.73
2023-05-10T09:38:03.420Z,15.85
2023-05-10T09:40:31.220Z,15.80
2023-05-10T09:43:07.842Z,15.68
2023-05-10T09:45:38.546Z,15.68
2023-05-10T09:48:06.950Z,15.51
2023-05-10T09:50:35.530Z,15.59
2023-05-10T09:53:04.951Z,15.62
2023-05-10T09:55:45.782Z,15.56
2023-05-10T09:58:16.269Z,15.45
2023-05-10T10:00:45.680Z,15.27
2023-05-10T10:03:17.738Z,15.07
2023-05-10T10:05:46.295Z,14.97
2023-05-10T10:08:15.210Z,14.85
2023-05-10T10:10:46.326Z,14.83
2023-05-10T10:13:14.890Z,14.76
2023-05-10T10:15:43.186Z,14.77
2023-05-10T10:18:14.377Z,14.79
2023-05-10T10:20:42.171Z,14.87
2023-05-10T10:23:09.758Z,14.97
2023-05-10T10:25:39.135Z,15.04
2023-05-10T10:28:28.026Z,15.12
2023-05-10T10:30:57.378Z,15.12
2023-05-10T10:33:44.826Z,15.15
2023-05-10T10:36:13.962Z,15.07
2023-05-10T10:38:47.359Z,15.06
2023-05-10T10:41:31.161Z,15.06
2023-05-10T10:44:25.551Z,15.16
2023-05-10T10:47:03.516Z,15.17
2023-05-10T10:49:38.084Z,15.20
2023-05-10T10:52:24.898Z,15.17
2023-05-10T10:55:11.773Z,15.01
2023-05-10T10:57:41.431Z,14.95
2023-05-10T11:00:25.100Z,14.82
2023-05-10T11:02:54.906Z,14.77
2023-05-10T11:05:26.222Z,14.82
2023-05-10T11:07:57.919Z,14.99
2023-05-10T11:10:26.735Z,15.15
2023-05-10T11:13:04.314Z,15.42
2023-05-10T11:15:41.562Z,15.60
2023-05-10T11:18:24.225Z,15.81
2023-05-10T11:20:53.005Z,15.96
2023-05-10T11:23:20.997Z,16.01
2023-05-10T11:25:49.687Z,16.04
2023-05-10T11:28:19.910Z,16.03
2023-05-10T11:30:49.761Z,16.09
2023-05-10T11:33:20.359Z,16.23
2023-05-10T11:35:47.942Z,16.29
2023-05-10T11:38:15.173Z,16.33
2023-05-10T11:40:42.956Z,16.40
2023-05-10T11:43:11.312Z,16.33
2023-05-10T11:45:38.640Z,16.37
2023-05-10T11:48:06.169Z,16.35
2023-05-10T11:50:33.737Z,16.19
2023-05-10T11:53:00.907Z,16.11
2023-05-10T11:55:27.914Z,15.94
2023-05-10T11:57:56.061Z,15.85
2023-05-10T12:00:23.076Z,15.85
2023-05-10T12:02:51.208Z,15.77
2023-05-10T12:05:19.989Z,15.67
2023-05-10T12:07:48.255Z,15.56
2023-05-10T12:10:25.350Z,15.54
2023-05-10T12:12:53.578Z,15.58
2023-05-10T12:15:25.693Z,15.72
2023-05-10T12:17:52.786Z,15.77
2023-05-10T12:20:23.164Z,15.98
2023-05-10T12:22:55.764Z,16.17
2023-05-10T12:25:24.716Z,16.23
2023-05-10T12:27:53.606Z,16.32
2023-05-10T12:30:25.759Z,16.34
2023-05-10T12:32:53.731Z,16.52
2023-05-10T12:35:25.087Z,16.53
2023-05-10T12:37:52.528Z,16.55
2023-05-10T12:40:19.852Z,16.74
2023-05-10T12:42:48.663Z,16.99
2023-05-10T12:45:18.875Z,17.26
2023-05-10T12:47:47.493Z,17.58
2023-05-10T12:50:14.540Z,18.07
2023-05-10T12:52:41.853Z,18.60
2023-05-10T12:55:09.375Z,19.27
2023-05-10T12:57:36.906Z,19.94
2023-05-10T13:00:07.756Z,20.25
2023-05-10T13:02:34.957Z,19.94
2023-05-10T13:05:02.352Z,19.64
2023-05-10T13:07:29.371Z,19.25
2023-05-10T13:09:57.906Z,19.22
2023-05-10T13:12:24.961Z,19.11
2023-05-10T13:14:53.439Z,19.00
2023-05-10T13:17:20.587Z,19.52
2023-05-10T13:19:48.285Z,19.56
2023-05-10T13:22:22.807Z,20.37
2023-05-10T13:24:56.842Z,21.25
2023-05-10T13:27:24.003Z,21.67
2023-05-10T13:29:52.193Z,21.28
2023-05-10T13:32:19.672Z,20.86
2023-05-10T13:34:47.977Z,20.41
2023-05-10T13:37:14.791Z,20.03
2023-05-10T13:39:42.591Z,19.76
2023-05-10T13:42:10.295Z,19.70
2023-05-10T13:44:39.654Z,20.39
2023-05-10T13:47:07.341Z,21.35
2023-05-10T13:49:39.857Z,22.21
2023-05-10T13:52:11.198Z,22.60
2023-05-10T13:54:39.276Z,23.07
2023-05-10T13:57:07.866Z,23.26
2023-05-10T13:59:35.027Z,23.04
2023-05-10T14:02:04.457Z,22.66
2023-05-10T14:04:31.612Z,22.09
2023-05-10T14:06:59.522Z,21.95
2023-05-10T14:09:26.956Z,21.29
2023-05-10T14:11:53.838Z,21.35
2023-05-10T14:14:20.886Z,22.07
2023-05-10T14:16:48.310Z,22.33
2023-05-10T14:19:15.948Z,22.01
2023-05-10T14:21:43.051Z,22.76
2023-05-10T14:24:10.496Z,23.20
2023-05-10T14:26:37.680Z,22.80
2023-05-10T14:29:04.403Z,22.95
2023-05-10T14:31:32.768Z,22.69
2023-05-10T14:34:00.488Z,22.62
2023-05-10T14:36:27.273Z,22.94
2023-05-10T14:38:54.330Z,23.78
2023-05-10T14:41:21.088Z,23.85
2023-05-10T14:43:48.551Z,23.40
2023-05-10T14:46:16.961Z,22.76
2023-05-10T14:48:44.026Z,22.41
2023-05-10T14:51:10.756Z,22.26
2023-05-10T14:53:37.699Z,22.02
2023-05-10T14:56:05.085Z,22.20
2023-05-10T14:58:34.296Z,22.58
2023-05-10T15:01:01.893Z,22.46
2023-05-10T15:03:30.763Z,23.06
2023-05-10T15:05:58.895Z,23.45
2023-05-10T15:08:26.193Z,22.83
2023-05-10T15:10:53.085Z,22.21
2023-05-10T15:13:20.279Z,21.82
2023-05-10T15:15:47.643Z,21.40
2023-05-10T15:18:14.612Z,21.28
2023-05-10T15:20:43.111Z,20.96
2023-05-10T15:23:10.466Z,20.61
2023-05-10T15:25:40.882Z,20.25
2023-05-10T15:28:08.141Z,19.80
2023-05-10T15:30:35.613Z,19.31
2023-05-10T15:33:03.490Z,18.87
2023-05-10T15:35:30.336Z,18.40
2023-05-10T15:37:57.585Z,17.71
2023-05-10T15:40:24.443Z,17.56
2023-05-10T15:42:51.443Z,17.38
2023-05-10T15:45:19.271Z,17.37
2023-05-10T15:47:47.166Z,16.88
2023-05-10T15:50:16.064Z,16.68
2023-05-10T15:52:42.892Z,16.40
2023-05-10T15:55:13.231Z,16.19
2023-05-10T15:57:41.663Z,16.15
2023-05-10T16:00:10.879Z,16.10
2023-05-10T16:02:38.460Z,15.94
2023-05-10T16:05:06.231Z,15.48
2023-05-10T16:07:34.013Z,15.32
2023-05-10T16:10:04.070Z,15.13
2023-05-10T16:12:33.780Z,15.13
2023-05-10T16:15:00.632Z,15.11
2023-05-10T16:17:27.925Z,15.07
2023-05-10T16:19:55.264Z,14.92
2023-05-10T16:22:22.505Z,14.98
2023-05-10T16:24:53.546Z,15.10
2023-05-10T16:27:20.664Z,15.15
2023-05-10T16:29:47.967Z,15.17
2023-05-10T16:32:14.870Z,15.23
2023-05-10T16:34:41.712Z,15.20
2023-05-10T16:37:09.491Z,15.24
2023-05-10T16:39:37.116Z,15.29
2023-05-10T16:42:04.348Z,15.36
2023-05-10T16:44:31.523Z,15.36
2023-05-10T16:46:58.684Z,15.23
2023-05-10T16:49:26.544Z,15.06
2023-05-10T16:51:53.535Z,15.00
2023-05-10T16:54:21.872Z,15.03
2023-05-10T16:56:48.553Z,14.96
2023-05-10T16:59:16.792Z,14.98
2023-05-10T17:01:43.806Z,15.05
2023-05-10T17:04:11.074Z,14.98
2023-05-10T17:06:38.571Z,14.95
2023-05-10T17:09:05.886Z,14.97
2023-05-10T17:11:32.884Z,14.94
2023-05-10T17:14:01.516Z,14.96
2023-05-10T17:16:29.940Z,14.95
2023-05-10T17:18:57.196Z,14.87
2023-05-10T17:21:24.200Z,14.92
2023-05-10T17:23:51.688Z,14.88
2023-05-10T17:26:19.466Z,14.89
2023-05-10T17:28:46.892Z,14.83
2023-05-10T17:31:13.884Z,14.87
2023-05-10T17:33:40.982Z,14.94
2023-05-10T17:36:07.932Z,14.93
2023-05-10T17:38:36.515Z,14.91
2023-05-10T17:41:03.647Z,14.92
2023-05-10T17:43:30.405Z,14.94
2023-05-10T17:46:07.878Z,14.93
2023-05-10T17:48:36.885Z,14.93
2023-05-10T17:51:05.241Z,14.89
2023-05-10T17:53:32.298Z,14.92
2023-05-10T17:56:01.197Z,14.91
2023-05-10T17:58:29.039Z,14.91
2023-05-10T18:00:58.201Z,14.96
2023-05-10T18:03:26.069Z,15.00
2023-05-10T18:05:53.757Z,15.01
2023-05-10T18:08:23.168Z,15.10
2023-05-10T18:10:50.144Z,15.15
2023-05-10T18:13:17.466Z,15.20
2023-05-10T18:15:44.743Z,15.18
2023-05-10T18:18:11.608Z,15.18
2023-05-10T18:20:38.860Z,15.10
2023-05-10T18:23:06.611Z,14.93
2023-05-10T18:25:33.686Z,14.85
2023-05-10T18:28:00.776Z,14.86
2023-05-10T18:30:28.106Z,14.89
2023-05-10T18:32:55.660Z,14.87
2023-05-10T18:35:22.857Z,14.89
2023-05-10T18:37:50.635Z,14.88
2023-05-10T18:40:19.480Z,14.89
2023-05-10T18:42:46.981Z,14.95
2023-05-10T18:45:14.251Z,14.82
2023-05-10T18:47:41.512Z,14.83
2023-05-10T18:50:09.858Z,14.80
2023-05-10T18:52:37.441Z,14.82
2023-05-10T18:55:05.036Z,14.72
2023-05-10T18:57:32.021Z,14.62
2023-05-10T18:59:58.717Z,14.65
2023-05-10T19:02:26.873Z,14.67
2023-05-10T19:04:54.299Z,14.61
2023-05-10T19:07:21.353Z,14.56
2023-05-10T19:09:48.541Z,14.48
2023-05-10T19:12:16.308Z,14.42
2023-05-10T19:14:43.400Z,14.39
2023-05-10T19:17:13.376Z,14.41
2023-05-10T19:19:40.984Z,14.39
2023-05-10T19:22:08.031Z,14.35
2023-05-10T19:24:35.147Z,14.31
2023-05-10T19:27:02.260Z,14.31
2023-05-10T19:29:29.571Z,14.34
2023-05-10T19:31:57.363Z,14.35
2023-05-10T19:34:24.647Z,14.36
2023-05-10T19:36:51.584Z,14.36
2023-05-10T19:39:18.531Z,14.29
2023-05-10T19:41:45.601Z,14.32
2023-05-10T19:44:12.715Z,14.37
2023-05-10T19:46:40.033Z,14.29
2023-05-10T19:49:07.832Z,14.31
2023-05-10T19:51:34.930Z,14.31
2023-05-10T19:54:02.195Z,14.24
2023-05-10T19:56:29.912Z,14.19
2023-05-10T19:58:57.762Z,14.18
2023-05-10T20:01:25.364Z,14.20
2023-05-10T20:03:52.580Z,14.22
2023-05-10T20:06:19.760Z,14.20
2023-05-10T20:08:47.111Z,14.20
2023-05-10T20:11:13.919Z,14.19
2023-05-10T20:13:40.763Z,14.21
2023-05-10T20:16:07.685Z,14.23
2023-05-10T20:18:34.768Z,14.22
2023-05-10T20:21:01.780Z,14.19
2023-05-10T20:23:28.907Z,14.20
2023-05-10T20:25:57.218Z,14.14
2023-05-10T20:28:26.251Z,14.12
2023-05-10T20:30:54.876Z,14.12
2023-05-10T20:33:22.841Z,14.02
2023-05-10T20:35:51.356Z,14.03
2023-05-10T20:38:19.758Z,14.01
2023-05-10T20:40:47.236Z,14.01
2023-05-10T20:43:15.034Z,14.06
2023-05-10T20:45:41.995Z,14.02
2023-05-10T20:48:10.541Z,13.99
2023-05-10T20:50:37.680Z,13.89
2023-05-10T20:53:04.973Z,13.91
2023-05-10T20:55:31.677Z,13.86
2023-05-10T20:57:58.989Z,13.79
2023-05-10T21:00:26.149Z,13.74
2023-05-10T21:02:53.223Z,13.68
2023-05-10T21:05:20.416Z,13.65
2023-05-10T21:07:50.082Z,13.60
2023-05-10T21:10:17.556Z,13.59
2023-05-10T21:12:44.950Z,13.60
2023-05-10T21:15:12.101Z,13.61
2023-05-10T21:17:39.571Z,13.63
2023-05-10T21:20:07.207Z,13.63
2023-05-10T21:22:34.529Z,13.61
2023-05-10T21:25:01.477Z,13.59
2023-05-10T21:27:28.941Z,13.58
2023-05-10T21:29:56.604Z,13.57
2023-05-10T21:32:23.731Z,13.55
2023-05-10T21:34:50.955Z,13.54
2023-05-10T21:37:19.137Z,13.56
2023-05-10T21:39:46.930Z,13.58
2023-05-10T21:42:13.767Z,13.59
2023-05-10T21:44:41.006Z,13.58
2023-05-10T21:47:09.917Z,13.60
2023-05-10T21:49:38.004Z,13.62
2023-05-10T21:52:04.935Z,13.64
2023-05-10T21:54:32.068Z,13.64
2023-05-10T21:57:00.742Z,13.61
2023-05-10T21:59:27.703Z,13.58
2023-05-10T22:01:54.445Z,13.57
2023-05-10T22:04:21.408Z,13.57
2023-05-10T22:06:49.131Z,13.57
2023-05-10T22:09:16.791Z,13.51
2023-05-10T22:11:43.476Z,13.50
2023-05-10T22:14:10.384Z,13.49
2023-05-10T22:16:37.776Z,13.49
2023-05-10T22:19:04.890Z,13.51
2023-05-10T22:21:31.871Z,13.54
2023-05-10T22:23:59.593Z,13.58
2023-05-10T22:26:27.248Z,13.60
2023-05-10T22:28:53.922Z,13.61
2023-05-10T22:31:21.569Z,13.61
2023-05-10T22:33:49.574Z,13.63
2023-05-10T22:36:17.007Z,13.59
2023-05-10T22:38:44.505Z,13.59
2023-05-10T22:41:11.437Z,13.57
2023-05-10T22:43:39.032Z,13.61
2023-05-10T22:46:06.768Z,13.56
2023-05-10T22:48:35.643Z,13.55
2023-05-10T22:51:03.230Z,13.56
2023-05-10T22:53:30.620Z,13.57
2023-05-10T22:55:58.196Z,13.49
2023-05-10T22:58:26.629Z,13.50
2023-05-10T23:00:55.707Z,13.48
2023-05-10T23:03:23.133Z,13.51
2023-05-10T23:05:50.581Z,13.52
2023-05-10T23:08:17.878Z,13.47
2023-05-10T23:10:44.908Z,13.43
2023-05-10T23:13:13.513Z,13.42
2023-05-10T23:15:44.690Z,13.39
2023-05-10T23:18:12.818Z,13.39
2023-05-10T23:20:44.468Z,13.41
2023-05-10T23:23:11.678Z,13.36
2023-05-10T23:25:38.549Z,13.39
2023-05-10T23:28:06.266Z,13.42
2023-05-10T23:30:33.464Z,13.37
2023-05-10T23:33:01.134Z,13.39
2023-05-10T23:35:28.136Z,13.38
2023-05-10T23:37:56.809Z,13.36
2023-05-10T23:40:23.769Z,13.36
2023-05-10T23:42:50.870Z,13.31
2023-05-10T23:45:17.935Z,13.31
2023-05-10T23:47:45.332Z,13.31
2023-05-10T23:50:12.431Z,13.31
2023-05-10T23:52:40.140Z,13.27
2023-05-10T23:55:07.534Z,13.21
2023-05-10T23:57:34.945Z,13.20
